Darstellungsparameter: Aktuell verwendete Einstellungen:
Skalierung der Graphiken ... ?
xyx+y,   Skalierungsfaktor:      Skalierung: Modus: x, Faktor: 1
Darstellungszeitraum ... ?
Vom - - bis: - -   Zeitraum: 02.06.2004 - 06.06.2004
Min/Max/Avg-Anzeige ... ?
Zeige MMA aktuell
Zeige MMA Monat
Zeige MMA alles
Zeige --A aktuell
Zeige --A Monat
Zeige --A alles
Keine MMA-Anzeige
MMA:
Keine MMA-Graphiken
MMA-Basis: 02.06.2004 - 06.06.2004
Quicknavigation für Darstellung... ?
Tage:      1T, 2T, 3T, 5T -1T -2T -3T -5T +1T +2T +3T +5T
Wochen: 1W, 2W, 3W -1W -2W -3W +1W +2W +3W
Monate: 1M, 3M, 6M -1M -3M -6M +1M +3M +6M
Jahre:    1J, 3J, 5J, 10J -1J -3J -5J -10J +1J +3J +5J +10J
Nutze für die Darstellung ... ?
Originaldaten oder Mittelwerte auf ...
Stundenbasis Tagesbasis Wochenbasis
Monatsbasis Jahresbasis      Datenbasis: Original-Daten
Darstellen als:
Statistik (Auto) Statistik J:M      Darstellung:
Zur Graphik,    zurück zur Übersicht aller Sensoren.
 
Tabellarische Datenbersicht: ?
 
Sensor: Nr:Datum:Temp:Abs-Feuchte:Windchill:Wind:
Aussen-T/F 1 02-06-2004 00:11:02 13.4 C 8.72 g/m*3 13.4 C 0 km/h
2 02-06-2004 00:23:02 13.2 C 8.73 g/m*3 13.2 C 0 km/h
3 02-06-2004 00:35:01 13 C 8.73 g/m*3 13 C 0 km/h
4 02-06-2004 00:47:02 12.8 C 8.85 g/m*3 12.8 C 0 km/h
5 02-06-2004 00:59:02 12.6 C 8.74 g/m*3 12.6 C 0 km/h
6 02-06-2004 01:11:02 12.4 C 8.63 g/m*3 12.4 C 0 km/h
7 02-06-2004 01:23:02 12.2 C 8.52 g/m*3 12.2 C 0 km/h
8 02-06-2004 01:35:02 12.2 C 8.52 g/m*3 12.2 C 0 km/h
9 02-06-2004 01:47:02 12.3 C 8.58 g/m*3 12.3 C 0 km/h
10 02-06-2004 01:59:02 12.2 C 8.74 g/m*3 12.2 C 0 km/h
11 02-06-2004 02:11:02 12.2 C 8.74 g/m*3 12.2 C 0 km/h
12 02-06-2004 02:23:02 12 C 8.63 g/m*3 12 C 0 km/h
13 02-06-2004 02:35:02 11.8 C 8.63 g/m*3 11.8 C 0 km/h
14 02-06-2004 02:48:02 11.7 C 8.68 g/m*3 11.7 C 0 km/h
15 02-06-2004 03:00:02 11.4 C 8.52 g/m*3 11.4 C 0 km/h
16 02-06-2004 03:12:02 11.3 C 8.47 g/m*3 11.3 C 0 km/h
17 02-06-2004 03:24:02 11.1 C 8.46 g/m*3 11.1 C 0 km/h
18 02-06-2004 03:36:01 10.9 C 8.45 g/m*3 10.9 C 0 km/h
19 02-06-2004 03:48:01 10.8 C 8.4 g/m*3 10.8 C 0 km/h
20 02-06-2004 04:00:01 10.7 C 8.45 g/m*3 10.7 C 0 km/h
21 02-06-2004 04:12:01 10.7 C 8.45 g/m*3 10.7 C 0 km/h
22 02-06-2004 04:24:01 10.6 C 8.39 g/m*3 10.6 C 0 km/h
23 02-06-2004 04:36:01 10.4 C 8.29 g/m*3 10.4 C 0 km/h
24 02-06-2004 04:48:01 10.3 C 8.24 g/m*3 10.3 C 0 km/h
25 02-06-2004 05:00:01 10.2 C 8.28 g/m*3 10.2 C 0 km/h
Sensor: Nr:Datum:Temp:Abs-Feuchte:Windchill:Wind:
Aussen-T/F 26 02-06-2004 05:12:01 10.1 C 8.13 g/m*3 10.1 C 0 km/h
27 02-06-2004 05:24:00 10 C 8.08 g/m*3 10 C 0 km/h
28 02-06-2004 05:36:00 9.9 C 8.22 g/m*3 9.9 C 0 km/h
29 02-06-2004 05:48:01 9.8 C 8.26 g/m*3 9.8 C 0 km/h
30 02-06-2004 06:00:01 9.8 C 8.35 g/m*3 9.8 C 0 km/h
31 02-06-2004 06:12:01 9.9 C 8.4 g/m*3 9.9 C 0 km/h
32 02-06-2004 06:24:01 9.9 C 8.4 g/m*3 9.9 C 0 km/h
33 02-06-2004 06:36:00 10 C 8.36 g/m*3 10 C 0 km/h
34 02-06-2004 06:48:01 10.1 C 8.42 g/m*3 10.1 C 0 km/h
35 02-06-2004 07:00:01 10.3 C 8.52 g/m*3 10.3 C 0 km/h
36 02-06-2004 07:12:01 10.6 C 8.59 g/m*3 10.6 C 0 km/h
37 02-06-2004 07:24:01 10.8 C 8.6 g/m*3 10.8 C 0 km/h
38 02-06-2004 07:36:01 11.1 C 8.56 g/m*3 11.1 C 0 km/h
39 02-06-2004 07:48:01 11 C 8.41 g/m*3 11 C 0 km/h
40 02-06-2004 08:00:01 11.2 C 8.62 g/m*3 11.2 C 0 km/h
41 02-06-2004 08:12:01 11.6 C 8.73 g/m*3 11.6 C 0 km/h
42 02-06-2004 08:24:01 11.9 C 8.9 g/m*3 11.9 C 0 km/h
43 02-06-2004 08:36:00 12.4 C 8.96 g/m*3 12.4 C 0 km/h
44 02-06-2004 08:48:01 13.1 C 9.13 g/m*3 13.1 C 0 km/h
45 02-06-2004 09:00:01 13.5 C 9.12 g/m*3 13.5 C 0 km/h
46 02-06-2004 09:12:01 14 C 9.29 g/m*3 14 C 0 km/h
47 02-06-2004 09:24:01 14.6 C 9.26 g/m*3 14.6 C 0 km/h
48 02-06-2004 09:36:01 15.4 C 9.2 g/m*3 15.4 C 0 km/h
49 02-06-2004 09:48:01 16.1 C 9.46 g/m*3 16.1 C 0 km/h
50 02-06-2004 10:00:01 16.8 C 9.58 g/m*3 16.8 C 0 km/h
Sensor: Nr:Datum:Temp:Abs-Feuchte:Windchill:Wind:
Aussen-T/F 51 02-06-2004 10:12:01 17.5 C 9.54 g/m*3 17.5 C 0 km/h
52 02-06-2004 10:24:01 18 C 9.37 g/m*3 18 C 0 km/h
53 02-06-2004 10:36:01 18.8 C 9.66 g/m*3 18.8 C 0 km/h
54 02-06-2004 10:48:01 19.3 C 9.45 g/m*3 19.3 C 0 km/h
55 02-06-2004 11:00:01 19.7 C 9.34 g/m*3 19.7 C 0 km/h
56 02-06-2004 11:12:01 20.6 C 10.02 g/m*3 20.6 C 0 km/h
57 02-06-2004 11:24:01 21 C 9.16 g/m*3 21 C 0 km/h
58 02-06-2004 11:36:01 21.4 C 8.81 g/m*3 21.4 C 0 km/h
59 02-06-2004 11:48:01 21.9 C 8.68 g/m*3 21.9 C 0 km/h
60 02-06-2004 12:00:01 22.6 C 8.04 g/m*3 22.6 C 0 km/h
61 02-06-2004 12:12:01 22.4 C 7.55 g/m*3 22.4 C 0 km/h
62 02-06-2004 12:24:01 21.3 C 7.83 g/m*3 21.3 C 0 km/h
63 02-06-2004 12:36:01 21.1 C 7.92 g/m*3 21.1 C 0 km/h
64 02-06-2004 12:48:01 21.3 C 8.39 g/m*3 21.3 C 0 km/h
65 02-06-2004 13:00:01 21.6 C 8.53 g/m*3 21.6 C 0 km/h
66 02-06-2004 13:12:01 24.4 C 8.23 g/m*3 24.4 C 0 km/h
67 02-06-2004 13:24:01 23.4 C 8.2 g/m*3 23.4 C 0 km/h
68 02-06-2004 13:36:02 22.1 C 7.81 g/m*3 22.1 C 0 km/h
69 02-06-2004 13:48:01 20.6 C 8.41 g/m*3 20.6 C 0 km/h
70 02-06-2004 14:00:01 20.6 C 8.77 g/m*3 20.6 C 0 km/h
71 02-06-2004 14:12:02 22 C 8.73 g/m*3 22 C 0 km/h
72 02-06-2004 14:24:01 18.7 C 11.53 g/m*3 18.7 C 0 km/h
73 02-06-2004 14:36:02 16.1 C 11.24 g/m*3 16.1 C 0 km/h
74 02-06-2004 14:48:01 15.4 C 11.43 g/m*3 15.4 C 0 km/h
75 02-06-2004 15:00:01 15.3 C 11.62 g/m*3 15.3 C 0 km/h
Sensor: Nr:Datum:Temp:Abs-Feuchte:Windchill:Wind:
Aussen-T/F 76 02-06-2004 15:12:02 15.9 C 12.19 g/m*3 15.9 C 0 km/h
77 02-06-2004 15:24:02 16.3 C 12.35 g/m*3 16.3 C 0 km/h
78 02-06-2004 15:36:02 16.8 C 12.58 g/m*3 16.8 C 0 km/h
79 02-06-2004 15:48:02 17.6 C 12.75 g/m*3 17.6 C 0 km/h
80 02-06-2004 16:00:02 20.3 C 13.72 g/m*3 20.3 C 0 km/h
81 02-06-2004 16:12:02 20.4 C 12.91 g/m*3 20.4 C 0 km/h
82 02-06-2004 16:24:02 19.3 C 12.77 g/m*3 19.3 C 0 km/h
83 02-06-2004 16:36:02 17.7 C 9.66 g/m*3 17.7 C 0 km/h
84 02-06-2004 16:48:02 15.8 C 10.5 g/m*3 15.8 C 0 km/h
85 02-06-2004 17:00:02 15.5 C 10.57 g/m*3 15.5 C 0 km/h
86 02-06-2004 17:12:02 15.7 C 11.37 g/m*3 15.7 C 0 km/h
87 02-06-2004 17:24:02 16.1 C 11.93 g/m*3 16.1 C 0 km/h
88 02-06-2004 17:36:02 16.3 C 12.21 g/m*3 16.3 C 0 km/h
89 02-06-2004 17:48:01 16.5 C 12.22 g/m*3 16.5 C 0 km/h
90 02-06-2004 18:00:01 16.6 C 12.01 g/m*3 16.6 C 0 km/h
91 02-06-2004 18:12:01 16.9 C 11.94 g/m*3 16.9 C 0 km/h
92 02-06-2004 18:24:01 16.9 C 11.94 g/m*3 16.9 C 0 km/h
93 02-06-2004 18:36:01 16.5 C 11.09 g/m*3 16.5 C 0 km/h
94 02-06-2004 18:48:01 16.2 C 10.76 g/m*3 16.2 C 0 km/h
95 02-06-2004 19:00:01 16.3 C 10.82 g/m*3 16.3 C 0 km/h
96 02-06-2004 19:12:01 16.3 C 10.96 g/m*3 16.3 C 0 km/h
97 02-06-2004 19:24:01 16.3 C 10.96 g/m*3 16.3 C 0 km/h
98 02-06-2004 19:36:01 15.7 C 10.57 g/m*3 15.7 C 0 km/h
99 02-06-2004 19:48:01 15.2 C 10.51 g/m*3 15.2 C 0 km/h
100 02-06-2004 20:00:01 15.1 C 10.32 g/m*3 15.1 C 0 km/h
Sensor: Nr:Datum:Temp:Abs-Feuchte:Windchill:Wind:
Aussen-T/F 101 02-06-2004 20:12:01 15 C 10.51 g/m*3 15 C 0 km/h
102 02-06-2004 20:24:01 14.8 C 10.64 g/m*3 14.8 C 0 km/h
103 02-06-2004 20:36:01 14.2 C 10.62 g/m*3 14.2 C 0 km/h
104 02-06-2004 20:48:01 14.1 C 10.8 g/m*3 14.1 C 0 km/h
105 02-06-2004 21:00:01 14 C 10.86 g/m*3 14 C 0 km/h
106 02-06-2004 21:12:01 13.6 C 10.71 g/m*3 13.6 C 0 km/h
107 02-06-2004 21:24:01 13.3 C 10.4 g/m*3 13.3 C 0 km/h
108 02-06-2004 21:36:01 13.4 C 10.69 g/m*3 13.4 C 0 km/h
109 02-06-2004 21:48:01 13.4 C 10.69 g/m*3 13.4 C 0 km/h
110 02-06-2004 22:00:01 13.5 C 10.88 g/m*3 13.5 C 0 km/h
111 02-06-2004 22:12:01 13.4 C 10.81 g/m*3 13.4 C 0 km/h
112 02-06-2004 22:24:01 13.2 C 10.68 g/m*3 13.2 C 0 km/h
113 02-06-2004 22:36:01 13.2 C 10.68 g/m*3 13.2 C 0 km/h
114 02-06-2004 22:48:01 13 C 10.55 g/m*3 13 C 0 km/h
115 02-06-2004 23:00:01 12.9 C 10.48 g/m*3 12.9 C 0 km/h
116 02-06-2004 23:12:01 13 C 10.43 g/m*3 13 C 0 km/h
117 02-06-2004 23:24:01 13 C 10.32 g/m*3 13 C 0 km/h
118 02-06-2004 23:36:01 13.1 C 10.38 g/m*3 13.1 C 0 km/h
119 02-06-2004 23:48:01 13 C 10.32 g/m*3 13 C 0 km/h
120 03-06-2004 00:00:01 12.9 C 10.37 g/m*3 12.9 C 0 km/h
121 03-06-2004 00:12:01 12.8 C 10.3 g/m*3 12.8 C 0 km/h
122 03-06-2004 00:24:01 12.7 C 10.35 g/m*3 12.7 C 0 km/h
123 03-06-2004 00:36:00 12.7 C 10.35 g/m*3 12.7 C 0 km/h
124 03-06-2004 00:48:01 12.6 C 10.29 g/m*3 12.6 C 0 km/h
125 03-06-2004 01:00:01 12.8 C 10.53 g/m*3 12.8 C 0 km/h
Sensor: Nr:Datum:Temp:Abs-Feuchte:Windchill:Wind:
Aussen-T/F 126 03-06-2004 01:12:01 12.7 C 10.46 g/m*3 12.7 C 0 km/h
127 03-06-2004 01:24:02 12.8 C 10.53 g/m*3 12.8 C 0 km/h
128 03-06-2004 01:36:02 12.8 C 10.53 g/m*3 12.8 C 0 km/h
129 03-06-2004 01:48:02 13 C 10.55 g/m*3 13 C 0 km/h
130 03-06-2004 02:00:02 12.9 C 10.48 g/m*3 12.9 C 0 km/h
131 03-06-2004 02:12:02 12.9 C 10.48 g/m*3 12.9 C 0 km/h
132 03-06-2004 02:24:02 12.9 C 10.48 g/m*3 12.9 C 0 km/h
133 03-06-2004 02:36:02 12.8 C 10.3 g/m*3 12.8 C 0 km/h
134 03-06-2004 02:49:03 12.8 C 10.3 g/m*3 12.8 C 0 km/h
135 03-06-2004 03:01:03 12.8 C 10.3 g/m*3 12.8 C 0 km/h
136 03-06-2004 03:13:03 12.9 C 10.37 g/m*3 12.9 C 0 km/h
137 03-06-2004 03:25:03 12.9 C 10.48 g/m*3 12.9 C 0 km/h
138 03-06-2004 03:37:01 12.9 C 10.48 g/m*3 12.9 C 0 km/h
139 03-06-2004 03:49:01 12.9 C 10.48 g/m*3 12.9 C 0 km/h
140 03-06-2004 04:01:01 12.9 C 10.48 g/m*3 12.9 C 0 km/h
141 03-06-2004 04:13:01 12.9 C 10.37 g/m*3 12.9 C 0 km/h
142 03-06-2004 04:25:01 13 C 10.43 g/m*3 13 C 0 km/h
143 03-06-2004 04:37:01 13 C 10.43 g/m*3 13 C 0 km/h
144 03-06-2004 04:49:01 13 C 10.43 g/m*3 13 C 0 km/h
145 03-06-2004 05:01:01 13 C 10.43 g/m*3 13 C 0 km/h
146 03-06-2004 05:13:01 13 C 10.43 g/m*3 13 C 0 km/h
147 03-06-2004 05:25:01 13.2 C 10.56 g/m*3 13.2 C 0 km/h
148 03-06-2004 05:37:01 13.2 C 10.45 g/m*3 13.2 C 0 km/h
149 03-06-2004 05:49:01 13.2 C 10.33 g/m*3 13.2 C 0 km/h
150 03-06-2004 06:01:01 13.2 C 10.33 g/m*3 13.2 C 0 km/h
Sensor: Nr:Datum:Temp:Abs-Feuchte:Windchill:Wind:
Aussen-T/F 151 03-06-2004 06:13:01 13.2 C 10.33 g/m*3 13.2 C 0 km/h
152 03-06-2004 06:25:00 13.1 C 10.27 g/m*3 13.1 C 0 km/h
153 03-06-2004 06:37:00 13.1 C 10.27 g/m*3 13.1 C 0 km/h
154 03-06-2004 06:49:01 13.1 C 10.38 g/m*3 13.1 C 0 km/h
155 03-06-2004 07:01:02 13.2 C 10.45 g/m*3 13.2 C 0 km/h
156 03-06-2004 07:13:02 13.2 C 10.33 g/m*3 13.2 C 0 km/h
157 03-06-2004 07:25:01 13.3 C 10.4 g/m*3 13.3 C 0 km/h
158 03-06-2004 07:37:01 13.4 C 10.46 g/m*3 13.4 C 0 km/h
159 03-06-2004 07:49:01 13.4 C 10.35 g/m*3 13.4 C 0 km/h
160 03-06-2004 08:01:01 13.6 C 10.36 g/m*3 13.6 C 0 km/h
161 03-06-2004 08:13:01 13.7 C 10.3 g/m*3 13.7 C 0 km/h
162 03-06-2004 08:25:01 13.6 C 10.24 g/m*3 13.6 C 0 km/h
163 03-06-2004 08:37:00 13.7 C 10.3 g/m*3 13.7 C 0 km/h
164 03-06-2004 08:49:01 13.9 C 10.19 g/m*3 13.9 C 0 km/h
165 03-06-2004 09:01:01 14.2 C 10.14 g/m*3 14.2 C 0 km/h
166 03-06-2004 09:13:01 14.7 C 10.32 g/m*3 14.7 C 0 km/h
167 03-06-2004 09:25:01 14.4 C 9.77 g/m*3 14.4 C 0 km/h
168 03-06-2004 09:37:01 14.6 C 10.01 g/m*3 14.6 C 0 km/h
169 03-06-2004 09:49:01 14.9 C 9.94 g/m*3 14.9 C 0 km/h
170 03-06-2004 10:01:01 14.9 C 10.07 g/m*3 14.9 C 0 km/h
171 03-06-2004 10:13:01 14.8 C 9.88 g/m*3 14.8 C 0 km/h
172 03-06-2004 10:25:01 15.4 C 9.85 g/m*3 15.4 C 0 km/h
173 03-06-2004 10:37:01 16 C 9.81 g/m*3 16 C 0 km/h
174 03-06-2004 10:49:01 15.7 C 9.77 g/m*3 15.7 C 0 km/h
175 03-06-2004 11:01:01 15.6 C 9.71 g/m*3 15.6 C 0 km/h
Sensor: Nr:Datum:Temp:Abs-Feuchte:Windchill:Wind:
Aussen-T/F 176 03-06-2004 11:13:01 15.6 C 9.71 g/m*3 15.6 C 0 km/h
177 03-06-2004 11:25:01 16 C 9.81 g/m*3 16 C 0 km/h
178 03-06-2004 11:37:01 16.3 C 9.71 g/m*3 16.3 C 0 km/h
179 03-06-2004 11:49:01 16.5 C 9.41 g/m*3 16.5 C 0 km/h
180 03-06-2004 12:01:01 16.1 C 9.32 g/m*3 16.1 C 0 km/h
181 03-06-2004 12:13:01 16 C 9.4 g/m*3 16 C 0 km/h
182 03-06-2004 12:25:01 16.2 C 9.38 g/m*3 16.2 C 0 km/h
183 03-06-2004 12:37:01 16.8 C 9.72 g/m*3 16.8 C 0 km/h
184 03-06-2004 12:49:01 17.3 C 9.72 g/m*3 17.3 C 0 km/h
185 03-06-2004 13:01:01 18.5 C 9.65 g/m*3 18.5 C 0 km/h
186 03-06-2004 13:13:01 18.5 C 9.18 g/m*3 18.5 C 0 km/h
187 03-06-2004 13:25:01 17.9 C 9.31 g/m*3 17.9 C 0 km/h
188 03-06-2004 13:37:01 18.7 C 9.45 g/m*3 18.7 C 0 km/h
189 03-06-2004 13:49:01 19 C 9.45 g/m*3 19 C 0 km/h
190 03-06-2004 14:01:02 18.8 C 9.66 g/m*3 18.8 C 0 km/h
191 03-06-2004 14:13:02 18.3 C 9.38 g/m*3 18.3 C 0 km/h
192 03-06-2004 14:25:01 18.1 C 9.27 g/m*3 18.1 C 0 km/h
193 03-06-2004 14:37:02 18.7 C 9.29 g/m*3 18.7 C 0 km/h
194 03-06-2004 14:49:02 20.8 C 9.78 g/m*3 20.8 C 0 km/h
195 03-06-2004 15:01:02 20.3 C 9.32 g/m*3 20.3 C 0 km/h
196 03-06-2004 15:13:02 20.6 C 9.31 g/m*3 20.6 C 0 km/h
197 03-06-2004 15:25:02 20.6 C 9.31 g/m*3 20.6 C 0 km/h
198 03-06-2004 15:37:02 20.4 C 9.38 g/m*3 20.4 C 0 km/h
199 03-06-2004 15:49:02 20.5 C 9.43 g/m*3 20.5 C 0 km/h
200 03-06-2004 16:01:02 21 C 9.34 g/m*3 21 C 0 km/h
Sensor: Nr:Datum:Temp:Abs-Feuchte:Windchill:Wind:
Aussen-T/F 201 03-06-2004 16:13:02 21.5 C 9.24 g/m*3 21.5 C 0 km/h
202 03-06-2004 16:25:02 22.2 C 9.42 g/m*3 22.2 C 0 km/h
203 03-06-2004 16:37:02 21.8 C 9.4 g/m*3 21.8 C 0 km/h
204 03-06-2004 16:49:01 21.9 C 9.46 g/m*3 21.9 C 0 km/h
205 03-06-2004 17:01:03 22.5 C 9.59 g/m*3 22.5 C 0 km/h
206 03-06-2004 17:13:03 21.6 C 9.48 g/m*3 21.6 C 0 km/h
207 03-06-2004 17:25:00 21.4 C 9.56 g/m*3 21.4 C 0 km/h
208 03-06-2004 17:37:00 22.4 C 10.13 g/m*3 22.4 C 0 km/h
209 03-06-2004 17:49:01 22.5 C 9.59 g/m*3 22.5 C 0 km/h
210 03-06-2004 18:01:01 21.9 C 9.26 g/m*3 21.9 C 0 km/h
211 03-06-2004 18:13:01 21.7 C 8.97 g/m*3 21.7 C 0 km/h
212 03-06-2004 18:25:01 21.2 C 9.27 g/m*3 21.2 C 0 km/h
213 03-06-2004 18:37:01 20.8 C 9.6 g/m*3 20.8 C 0 km/h
214 03-06-2004 18:49:01 21.8 C 9.21 g/m*3 21.8 C 0 km/h
215 03-06-2004 19:01:01 21.2 C 9.08 g/m*3 21.2 C 0 km/h
216 03-06-2004 19:13:01 20.8 C 9.6 g/m*3 20.8 C 0 km/h
217 03-06-2004 19:25:01 20.7 C 9.36 g/m*3 20.7 C 0 km/h
218 03-06-2004 19:37:01 20 C 9.16 g/m*3 20 C 0 km/h
219 03-06-2004 19:49:01 20.3 C 9.67 g/m*3 20.3 C 0 km/h
220 03-06-2004 20:01:01 20.9 C 9.83 g/m*3 20.9 C 0 km/h
221 03-06-2004 20:13:01 21.2 C 9.82 g/m*3 21.2 C 0 km/h
222 03-06-2004 20:25:01 20.8 C 9.78 g/m*3 20.8 C 0 km/h
223 03-06-2004 20:37:01 20.4 C 9.73 g/m*3 20.4 C 0 km/h
224 03-06-2004 20:49:01 19.7 C 9.51 g/m*3 19.7 C 0 km/h
225 03-06-2004 21:01:01 19.3 C 10.12 g/m*3 19.3 C 0 km/h
Sensor: Nr:Datum:Temp:Abs-Feuchte:Windchill:Wind:
Aussen-T/F 226 03-06-2004 21:13:01 18.7 C 10.25 g/m*3 18.7 C 0 km/h
227 03-06-2004 21:25:00 17.8 C 10.17 g/m*3 17.8 C 0 km/h
228 03-06-2004 21:37:00 17 C 9.98 g/m*3 17 C 0 km/h
229 03-06-2004 21:49:01 16.6 C 9.89 g/m*3 16.6 C 0 km/h
230 03-06-2004 22:01:01 16 C 9.81 g/m*3 16 C 0 km/h
231 03-06-2004 22:13:01 15.8 C 10.1 g/m*3 15.8 C 0 km/h
232 03-06-2004 22:25:01 15.4 C 9.99 g/m*3 15.4 C 0 km/h
233 03-06-2004 22:37:01 15.5 C 10.18 g/m*3 15.5 C 0 km/h
234 03-06-2004 22:49:01 15.4 C 10.12 g/m*3 15.4 C 0 km/h
235 03-06-2004 23:01:01 15 C 10 g/m*3 15 C 0 km/h
236 03-06-2004 23:13:01 14.9 C 10.2 g/m*3 14.9 C 0 km/h
237 03-06-2004 23:25:01 14.9 C 10.2 g/m*3 14.9 C 0 km/h
238 03-06-2004 23:37:01 14.9 C 10.32 g/m*3 14.9 C 0 km/h
239 03-06-2004 23:49:01 14.7 C 10.2 g/m*3 14.7 C 0 km/h
240 04-06-2004 00:01:01 14.4 C 10.14 g/m*3 14.4 C 0 km/h
241 04-06-2004 00:13:01 14.5 C 10.32 g/m*3 14.5 C 0 km/h
242 04-06-2004 00:25:01 14.4 C 10.38 g/m*3 14.4 C 0 km/h
243 04-06-2004 00:37:01 14.1 C 10.19 g/m*3 14.1 C 0 km/h
244 04-06-2004 00:49:01 14 C 10.13 g/m*3 14 C 0 km/h
245 04-06-2004 01:01:01 13.8 C 10.37 g/m*3 13.8 C 0 km/h
246 04-06-2004 01:13:01 13.4 C 10 g/m*3 13.4 C 0 km/h
247 04-06-2004 01:25:01 13.3 C 9.94 g/m*3 13.3 C 0 km/h
248 04-06-2004 01:37:01 13.2 C 9.99 g/m*3 13.2 C 0 km/h
249 04-06-2004 01:49:01 13.1 C 10.04 g/m*3 13.1 C 0 km/h
250 04-06-2004 02:01:01 13 C 9.98 g/m*3 13 C 0 km/h
Sensor: Nr:Datum:Temp:Abs-Feuchte:Windchill:Wind:
Aussen-T/F 251 04-06-2004 02:13:01 13 C 9.98 g/m*3 13 C 0 km/h
252 04-06-2004 02:25:01 12.8 C 9.86 g/m*3 12.8 C 0 km/h
253 04-06-2004 02:37:01 12.8 C 9.97 g/m*3 12.8 C 0 km/h
254 04-06-2004 02:50:03 12.8 C 9.97 g/m*3 12.8 C 0 km/h
255 04-06-2004 03:02:03 12.6 C 9.74 g/m*3 12.6 C 0 km/h
256 04-06-2004 03:14:03 12.5 C 9.68 g/m*3 12.5 C 0 km/h
257 04-06-2004 03:26:03 12.3 C 9.66 g/m*3 12.3 C 0 km/h
258 04-06-2004 03:38:01 12.1 C 9.54 g/m*3 12.1 C 0 km/h
259 04-06-2004 03:50:01 12 C 9.48 g/m*3 12 C 0 km/h
260 04-06-2004 04:02:01 11.8 C 9.37 g/m*3 11.8 C 0 km/h
261 04-06-2004 04:14:01 11.8 C 9.47 g/m*3 11.8 C 0 km/h
262 04-06-2004 04:26:01 11.7 C 9.41 g/m*3 11.7 C 0 km/h
263 04-06-2004 04:38:01 11.6 C 9.46 g/m*3 11.6 C 0 km/h
264 04-06-2004 04:50:01 11.5 C 9.5 g/m*3 11.5 C 0 km/h
265 04-06-2004 05:02:01 11.4 C 9.44 g/m*3 11.4 C 0 km/h
266 04-06-2004 05:14:01 11.3 C 9.38 g/m*3 11.3 C 0 km/h
267 04-06-2004 05:26:00 11.4 C 9.44 g/m*3 11.4 C 0 km/h
268 04-06-2004 05:38:00 11.4 C 9.44 g/m*3 11.4 C 0 km/h
269 04-06-2004 05:50:01 11.5 C 9.5 g/m*3 11.5 C 0 km/h
270 04-06-2004 06:02:01 11.5 C 9.5 g/m*3 11.5 C 0 km/h
271 04-06-2004 06:14:01 11.5 C 9.4 g/m*3 11.5 C 0 km/h
272 04-06-2004 06:26:00 11.7 C 9.52 g/m*3 11.7 C 0 km/h
273 04-06-2004 06:38:00 11.8 C 9.47 g/m*3 11.8 C 0 km/h
274 04-06-2004 06:50:01 11.9 C 9.53 g/m*3 11.9 C 0 km/h
275 04-06-2004 07:02:01 11.9 C 9.43 g/m*3 11.9 C 0 km/h
Sensor: Nr:Datum:Temp:Abs-Feuchte:Windchill:Wind:
Aussen-T/F 276 04-06-2004 07:14:01 12.1 C 9.44 g/m*3 12.1 C 0 km/h
277 04-06-2004 07:26:00 12.3 C 9.56 g/m*3 12.3 C 0 km/h
278 04-06-2004 07:38:00 12.4 C 9.51 g/m*3 12.4 C 0 km/h
279 04-06-2004 07:50:01 12.8 C 9.63 g/m*3 12.8 C 0 km/h
280 04-06-2004 08:02:01 12.9 C 9.58 g/m*3 12.9 C 0 km/h
281 04-06-2004 08:14:01 13.1 C 9.59 g/m*3 13.1 C 0 km/h
282 04-06-2004 08:26:00 13.1 C 9.59 g/m*3 13.1 C 0 km/h
283 04-06-2004 08:38:00 13.3 C 9.7 g/m*3 13.3 C 0 km/h
284 04-06-2004 08:50:01 13.4 C 9.76 g/m*3 13.4 C 0 km/h
285 04-06-2004 09:02:01 13.3 C 9.82 g/m*3 13.3 C 0 km/h
286 04-06-2004 09:14:01 13.2 C 9.99 g/m*3 13.2 C 0 km/h
287 04-06-2004 09:26:01 13.3 C 10.17 g/m*3 13.3 C 0 km/h
288 04-06-2004 09:38:00 13.2 C 10.1 g/m*3 13.2 C 0 km/h
289 04-06-2004 09:50:01 13.2 C 10.22 g/m*3 13.2 C 0 km/h
290 04-06-2004 10:02:01 13.2 C 10.33 g/m*3 13.2 C 0 km/h
291 04-06-2004 10:14:01 13.2 C 10.33 g/m*3 13.2 C 0 km/h
292 04-06-2004 10:26:01 13.6 C 10.59 g/m*3 13.6 C 0 km/h
293 04-06-2004 10:38:00 13.6 C 10.59 g/m*3 13.6 C 0 km/h
294 04-06-2004 10:50:01 13.8 C 10.6 g/m*3 13.8 C 0 km/h
295 04-06-2004 11:02:01 14.2 C 10.75 g/m*3 14.2 C 0 km/h
296 04-06-2004 11:14:01 14.3 C 10.81 g/m*3 14.3 C 0 km/h
297 04-06-2004 11:26:01 14.5 C 10.82 g/m*3 14.5 C 0 km/h
298 04-06-2004 11:38:01 14.4 C 10.88 g/m*3 14.4 C 0 km/h
299 04-06-2004 11:50:01 14.8 C 11.15 g/m*3 14.8 C 0 km/h
300 04-06-2004 12:02:01 14.4 C 10.88 g/m*3 14.4 C 0 km/h
Sensor: Nr:Datum:Temp:Abs-Feuchte:Windchill:Wind:
Aussen-T/F 301 04-06-2004 12:14:01 14.4 C 11 g/m*3 14.4 C 0 km/h
302 04-06-2004 12:26:01 14.8 C 11.4 g/m*3 14.8 C 0 km/h
303 04-06-2004 12:38:01 14.8 C 11.15 g/m*3 14.8 C 0 km/h
304 04-06-2004 12:50:01 15 C 10.64 g/m*3 15 C 0 km/h
305 04-06-2004 13:02:01 15.1 C 10.32 g/m*3 15.1 C 0 km/h
306 04-06-2004 13:14:01 15.1 C 10.19 g/m*3 15.1 C 0 km/h
307 04-06-2004 13:26:01 15.1 C 9.68 g/m*3 15.1 C 0 km/h
308 04-06-2004 13:38:01 14.8 C 9.75 g/m*3 14.8 C 0 km/h
309 04-06-2004 13:50:01 14.6 C 10.14 g/m*3 14.6 C 0 km/h
310 04-06-2004 14:02:01 14.3 C 9.83 g/m*3 14.3 C 0 km/h
311 04-06-2004 14:14:01 14.4 C 10.01 g/m*3 14.4 C 0 km/h
312 04-06-2004 14:26:01 14.4 C 9.77 g/m*3 14.4 C 0 km/h
313 04-06-2004 14:38:01 14.2 C 9.89 g/m*3 14.2 C 0 km/h
314 04-06-2004 14:50:01 13.8 C 10.13 g/m*3 13.8 C 0 km/h
315 04-06-2004 15:02:01 14 C 10.25 g/m*3 14 C 0 km/h
316 04-06-2004 15:14:01 14.2 C 10.26 g/m*3 14.2 C 0 km/h
317 04-06-2004 15:26:01 14.4 C 10.63 g/m*3 14.4 C 0 km/h
318 04-06-2004 15:38:01 14 C 10.37 g/m*3 14 C 0 km/h
319 04-06-2004 15:50:01 14 C 10.49 g/m*3 14 C 0 km/h
320 04-06-2004 16:02:02 14.1 C 10.68 g/m*3 14.1 C 0 km/h
321 04-06-2004 16:14:02 14.1 C 10.68 g/m*3 14.1 C 0 km/h
322 04-06-2004 16:26:01 14.4 C 10.63 g/m*3 14.4 C 0 km/h
323 04-06-2004 16:38:01 14.6 C 10.64 g/m*3 14.6 C 0 km/h
324 04-06-2004 16:50:01 14.5 C 10.57 g/m*3 14.5 C 0 km/h
325 04-06-2004 17:02:01 14.6 C 10.26 g/m*3 14.6 C 0 km/h
Sensor: Nr:Datum:Temp:Abs-Feuchte:Windchill:Wind:
Aussen-T/F 326 04-06-2004 17:14:01 15.1 C 10.45 g/m*3 15.1 C 0 km/h
327 04-06-2004 17:26:01 15.4 C 10.51 g/m*3 15.4 C 0 km/h
328 04-06-2004 17:38:01 15.8 C 10.5 g/m*3 15.8 C 0 km/h
329 04-06-2004 17:50:01 16.1 C 10.42 g/m*3 16.1 C 0 km/h
330 04-06-2004 18:02:01 15.7 C 10.3 g/m*3 15.7 C 0 km/h
331 04-06-2004 18:14:01 15.7 C 10.7 g/m*3 15.7 C 0 km/h
332 04-06-2004 18:26:01 15.9 C 10.97 g/m*3 15.9 C 0 km/h
333 04-06-2004 18:38:01 16 C 10.63 g/m*3 16 C 0 km/h
334 04-06-2004 18:50:01 16 C 10.76 g/m*3 16 C 0 km/h
335 04-06-2004 19:02:01 16 C 10.9 g/m*3 16 C 0 km/h
336 04-06-2004 19:14:01 16.5 C 10.81 g/m*3 16.5 C 0 km/h
337 04-06-2004 19:26:01 16.8 C 11.01 g/m*3 16.8 C 0 km/h
338 04-06-2004 19:38:01 16.7 C 10.37 g/m*3 16.7 C 0 km/h
339 04-06-2004 19:50:01 16.8 C 10.87 g/m*3 16.8 C 0 km/h
340 04-06-2004 20:02:01 16.5 C 10.39 g/m*3 16.5 C 0 km/h
341 04-06-2004 20:14:01 15.9 C 10.29 g/m*3 15.9 C 0 km/h
342 04-06-2004 20:26:01 15.5 C 10.31 g/m*3 15.5 C 0 km/h
343 04-06-2004 20:38:01 15.5 C 10.44 g/m*3 15.5 C 0 km/h
344 04-06-2004 20:50:01 14.9 C 10.32 g/m*3 14.9 C 0 km/h
345 04-06-2004 21:02:01 14.5 C 10.32 g/m*3 14.5 C 0 km/h
346 04-06-2004 21:14:01 14.2 C 10.26 g/m*3 14.2 C 0 km/h
347 04-06-2004 21:26:02 14.1 C 10.32 g/m*3 14.1 C 0 km/h
348 04-06-2004 21:38:01 14 C 10.37 g/m*3 14 C 0 km/h
349 04-06-2004 21:50:01 14 C 10.37 g/m*3 14 C 0 km/h
350 04-06-2004 22:02:01 14 C 10.37 g/m*3 14 C 0 km/h
Sensor: Nr:Datum:Temp:Abs-Feuchte:Windchill:Wind:
Aussen-T/F 351 04-06-2004 22:14:01 14 C 10.37 g/m*3 14 C 0 km/h
352 04-06-2004 22:26:01 14 C 10.37 g/m*3 14 C 0 km/h
353 04-06-2004 22:38:01 13.9 C 10.43 g/m*3 13.9 C 0 km/h
354 04-06-2004 22:50:01 14 C 10.25 g/m*3 14 C 0 km/h
355 04-06-2004 23:02:01 13.8 C 10.25 g/m*3 13.8 C 0 km/h
356 04-06-2004 23:14:01 13.6 C 10.12 g/m*3 13.6 C 0 km/h
357 04-06-2004 23:26:01 13.7 C 10.18 g/m*3 13.7 C 0 km/h
358 04-06-2004 23:38:01 13.7 C 10.07 g/m*3 13.7 C 0 km/h
359 04-06-2004 23:50:01 13.7 C 10.07 g/m*3 13.7 C 0 km/h
360 05-06-2004 00:02:01 13.8 C 10.13 g/m*3 13.8 C 0 km/h
361 05-06-2004 00:14:01 13.7 C 9.95 g/m*3 13.7 C 0 km/h
362 05-06-2004 00:26:01 13.8 C 10.01 g/m*3 13.8 C 0 km/h
363 05-06-2004 00:38:01 13.8 C 9.89 g/m*3 13.8 C 0 km/h
364 05-06-2004 00:50:01 13.7 C 9.83 g/m*3 13.7 C 0 km/h
365 05-06-2004 01:02:01 13.7 C 9.83 g/m*3 13.7 C 0 km/h
366 05-06-2004 01:14:01 13.7 C 9.95 g/m*3 13.7 C 0 km/h
367 05-06-2004 01:26:01 13.4 C 9.88 g/m*3 13.4 C 0 km/h
368 05-06-2004 01:38:01 13.4 C 10 g/m*3 13.4 C 0 km/h
369 05-06-2004 01:50:01 13.5 C 10.06 g/m*3 13.5 C 0 km/h
370 05-06-2004 02:02:01 13.6 C 10 g/m*3 13.6 C 0 km/h
371 05-06-2004 02:14:01 13.4 C 10.11 g/m*3 13.4 C 0 km/h
372 05-06-2004 02:26:01 13.3 C 10.05 g/m*3 13.3 C 0 km/h
373 05-06-2004 02:38:01 13.4 C 10.23 g/m*3 13.4 C 0 km/h
374 05-06-2004 02:51:03 13.2 C 10.22 g/m*3 13.2 C 0 km/h
375 05-06-2004 03:03:03 13.1 C 10.16 g/m*3 13.1 C 0 km/h
Sensor: Nr:Datum:Temp:Abs-Feuchte:Windchill:Wind:
Aussen-T/F 376 05-06-2004 03:15:03 13.1 C 10.27 g/m*3 13.1 C 0 km/h
377 05-06-2004 03:27:03 13 C 10.32 g/m*3 13 C 0 km/h
378 05-06-2004 03:39:02 13.1 C 10.38 g/m*3 13.1 C 0 km/h
379 05-06-2004 03:51:02 13 C 10.32 g/m*3 13 C 0 km/h
380 05-06-2004 04:03:02 13 C 10.32 g/m*3 13 C 0 km/h
381 05-06-2004 04:15:02 13.1 C 10.27 g/m*3 13.1 C 0 km/h
382 05-06-2004 04:27:02 13 C 10.21 g/m*3 13 C 0 km/h
383 05-06-2004 04:39:02 13 C 10.21 g/m*3 13 C 0 km/h
384 05-06-2004 04:51:01 13.1 C 10.27 g/m*3 13.1 C 0 km/h
385 05-06-2004 05:03:01 13.1 C 10.38 g/m*3 13.1 C 0 km/h
386 05-06-2004 05:15:01 13 C 10.32 g/m*3 13 C 0 km/h
387 05-06-2004 05:27:01 13 C 10.21 g/m*3 13 C 0 km/h
388 05-06-2004 05:39:01 13 C 10.21 g/m*3 13 C 0 km/h
389 05-06-2004 05:51:01 13 C 10.21 g/m*3 13 C 0 km/h
390 05-06-2004 06:03:01 13.1 C 10.27 g/m*3 13.1 C 0 km/h
391 05-06-2004 06:15:01 13.1 C 10.27 g/m*3 13.1 C 0 km/h
392 05-06-2004 06:27:01 13.1 C 10.27 g/m*3 13.1 C 0 km/h
393 05-06-2004 06:39:01 13.1 C 10.27 g/m*3 13.1 C 0 km/h
394 05-06-2004 06:51:01 13.2 C 9.87 g/m*3 13.2 C 0 km/h
395 05-06-2004 07:03:01 13.2 C 9.53 g/m*3 13.2 C 0 km/h
396 05-06-2004 07:15:01 13.1 C 9.47 g/m*3 13.1 C 0 km/h
397 05-06-2004 07:27:01 13 C 9.3 g/m*3 13 C 0 km/h
398 05-06-2004 07:39:00 13.1 C 9.24 g/m*3 13.1 C 0 km/h
399 05-06-2004 07:51:01 13.2 C 9.3 g/m*3 13.2 C 0 km/h
400 05-06-2004 08:03:01 13.4 C 9.3 g/m*3 13.4 C 0 km/h
Sensor: Nr:Datum:Temp:Abs-Feuchte:Windchill:Wind:
Aussen-T/F 401 05-06-2004 08:15:01 13.5 C 9.12 g/m*3 13.5 C 0 km/h
402 05-06-2004 08:27:01 13.6 C 8.94 g/m*3 13.6 C 0 km/h
403 05-06-2004 08:39:01 13.6 C 8.71 g/m*3 13.6 C 0 km/h
404 05-06-2004 08:51:01 13.5 C 8.77 g/m*3 13.5 C 0 km/h
405 05-06-2004 09:03:01 13.9 C 8.99 g/m*3 13.9 C 0 km/h
406 05-06-2004 09:15:01 13.9 C 8.75 g/m*3 13.9 C 0 km/h
407 05-06-2004 09:27:01 13.8 C 8.58 g/m*3 13.8 C 0 km/h
408 05-06-2004 09:39:00 14.2 C 8.67 g/m*3 14.2 C 0 km/h
409 05-06-2004 09:51:01 14.4 C 8.78 g/m*3 14.4 C 0 km/h
410 05-06-2004 10:03:01 14.7 C 8.56 g/m*3 14.7 C 0 km/h
411 05-06-2004 10:15:01 14.4 C 8.16 g/m*3 14.4 C 0 km/h
412 05-06-2004 10:27:01 14.7 C 8.18 g/m*3 14.7 C 0 km/h
413 05-06-2004 10:39:00 15.1 C 8.13 g/m*3 15.1 C 0 km/h
414 05-06-2004 10:51:01 14.9 C 7.9 g/m*3 14.9 C 0 km/h
415 05-06-2004 11:03:01 15.3 C 7.84 g/m*3 15.3 C 0 km/h
416 05-06-2004 11:15:01 14.4 C 8.03 g/m*3 14.4 C 0 km/h
417 05-06-2004 11:27:01 14.5 C 8.33 g/m*3 14.5 C 0 km/h
418 05-06-2004 11:39:01 14.8 C 8.61 g/m*3 14.8 C 0 km/h
419 05-06-2004 11:51:02 14.4 C 8.28 g/m*3 14.4 C 0 km/h
420 05-06-2004 12:03:01 14.7 C 8.31 g/m*3 14.7 C 0 km/h
421 05-06-2004 12:15:01 15.2 C 8.31 g/m*3 15.2 C 0 km/h
422 05-06-2004 12:27:01 15.5 C 7.93 g/m*3 15.5 C 0 km/h
423 05-06-2004 12:39:01 16.3 C 7.77 g/m*3 16.3 C 0 km/h
424 05-06-2004 12:51:01 15.8 C 7.81 g/m*3 15.8 C 0 km/h
425 05-06-2004 13:03:01 16.3 C 8.05 g/m*3 16.3 C 0 km/h
Sensor: Nr:Datum:Temp:Abs-Feuchte:Windchill:Wind:
Aussen-T/F 426 05-06-2004 13:15:01 16.4 C 7.96 g/m*3 16.4 C 0 km/h
427 05-06-2004 13:27:01 17.3 C 7.81 g/m*3 17.3 C 0 km/h
428 05-06-2004 13:39:01 17.3 C 7.96 g/m*3 17.3 C 0 km/h
429 05-06-2004 13:51:01 16.7 C 7.82 g/m*3 16.7 C 0 km/h
430 05-06-2004 14:03:01 16.5 C 8 g/m*3 16.5 C 0 km/h
431 05-06-2004 14:15:01 15.5 C 7.8 g/m*3 15.5 C 0 km/h
432 05-06-2004 14:27:01 15.2 C 7.92 g/m*3 15.2 C 0 km/h
433 05-06-2004 14:39:01 15.3 C 8.1 g/m*3 15.3 C 0 km/h
434 05-06-2004 14:51:01 15.9 C 8.13 g/m*3 15.9 C 0 km/h
435 05-06-2004 15:03:01 16 C 8.04 g/m*3 16 C 0 km/h
436 05-06-2004 15:15:01 16.5 C 8.14 g/m*3 16.5 C 0 km/h
437 05-06-2004 15:27:01 16.6 C 8.19 g/m*3 16.6 C 0 km/h
438 05-06-2004 15:39:01 16.1 C 8.09 g/m*3 16.1 C 0 km/h
439 05-06-2004 15:51:01 16.8 C 8.15 g/m*3 16.8 C 0 km/h
440 05-06-2004 16:03:01 16.3 C 8.32 g/m*3 16.3 C 0 km/h
441 05-06-2004 16:15:01 16 C 8.04 g/m*3 16 C 0 km/h
442 05-06-2004 16:27:01 15 C 8.85 g/m*3 15 C 0 km/h
443 05-06-2004 16:39:01 14.5 C 9.08 g/m*3 14.5 C 0 km/h
444 05-06-2004 16:51:01 15.3 C 9.01 g/m*3 15.3 C 0 km/h
445 05-06-2004 17:03:01 15.6 C 8.91 g/m*3 15.6 C 0 km/h
446 05-06-2004 17:15:01 15.4 C 8.15 g/m*3 15.4 C 0 km/h
447 05-06-2004 17:27:01 15.2 C 8.18 g/m*3 15.2 C 0 km/h
448 05-06-2004 17:39:01 15.7 C 8.56 g/m*3 15.7 C 0 km/h
449 05-06-2004 17:51:01 16 C 8.45 g/m*3 16 C 0 km/h
450 05-06-2004 18:03:01 16.1 C 8.36 g/m*3 16.1 C 0 km/h
Sensor: Nr:Datum:Temp:Abs-Feuchte:Windchill:Wind:
Aussen-T/F 451 05-06-2004 18:15:01 15.8 C 8.48 g/m*3 15.8 C 0 km/h
452 05-06-2004 18:27:01 15.6 C 8.51 g/m*3 15.6 C 0 km/h
453 05-06-2004 18:39:01 15.6 C 8.51 g/m*3 15.6 C 0 km/h
454 05-06-2004 18:51:01 15.3 C 8.49 g/m*3 15.3 C 0 km/h
455 05-06-2004 19:03:01 15.3 C 8.75 g/m*3 15.3 C 0 km/h
456 05-06-2004 19:15:01 15.2 C 8.7 g/m*3 15.2 C 0 km/h
457 05-06-2004 19:27:01 15.4 C 8.8 g/m*3 15.4 C 0 km/h
458 05-06-2004 19:39:01 15.7 C 8.96 g/m*3 15.7 C 0 km/h
459 05-06-2004 19:51:01 15.6 C 8.91 g/m*3 15.6 C 0 km/h
460 05-06-2004 20:03:01 15.2 C 8.83 g/m*3 15.2 C 0 km/h
461 05-06-2004 20:15:01 15.1 C 8.9 g/m*3 15.1 C 0 km/h
462 05-06-2004 20:27:01 15 C 8.98 g/m*3 15 C 0 km/h
463 05-06-2004 20:39:01 14.8 C 9.12 g/m*3 14.8 C 0 km/h
464 05-06-2004 20:51:01 14.7 C 9.19 g/m*3 14.7 C 0 km/h
465 05-06-2004 21:03:01 14.5 C 9.2 g/m*3 14.5 C 0 km/h
466 05-06-2004 21:15:01 14.3 C 9.21 g/m*3 14.3 C 0 km/h
467 05-06-2004 21:27:01 14.2 C 9.28 g/m*3 14.2 C 0 km/h
468 05-06-2004 21:39:01 13.9 C 9.23 g/m*3 13.9 C 0 km/h
469 05-06-2004 21:51:01 13.5 C 9.12 g/m*3 13.5 C 0 km/h
470 05-06-2004 22:03:01 13.1 C 9.01 g/m*3 13.1 C 0 km/h
471 05-06-2004 22:15:01 12.8 C 9.07 g/m*3 12.8 C 0 km/h
472 05-06-2004 22:27:01 12.8 C 9.18 g/m*3 12.8 C 0 km/h
473 05-06-2004 22:39:01 12.7 C 9.02 g/m*3 12.7 C 0 km/h
474 05-06-2004 22:51:01 12.6 C 8.96 g/m*3 12.6 C 0 km/h
475 05-06-2004 23:03:01 12.7 C 9.13 g/m*3 12.7 C 0 km/h
Sensor: Nr:Datum:Temp:Abs-Feuchte:Windchill:Wind:
Aussen-T/F 476 05-06-2004 23:15:01 12.8 C 9.18 g/m*3 12.8 C 0 km/h
477 05-06-2004 23:27:01 12.8 C 9.07 g/m*3 12.8 C 0 km/h
478 05-06-2004 23:39:01 12.6 C 9.07 g/m*3 12.6 C 0 km/h
479 05-06-2004 23:51:01 12.5 C 9.02 g/m*3 12.5 C 0 km/h
480 06-06-2004 00:03:01 12.2 C 9.06 g/m*3 12.2 C 0 km/h
481 06-06-2004 00:15:02 12.1 C 9.01 g/m*3 12.1 C 0 km/h
482 06-06-2004 00:27:02 12.2 C 9.06 g/m*3 12.2 C 0 km/h
483 06-06-2004 00:39:01 12.2 C 9.06 g/m*3 12.2 C 0 km/h
484 06-06-2004 00:51:01 12 C 8.95 g/m*3 12 C 0 km/h
485 06-06-2004 01:03:01 11.5 C 8.78 g/m*3 11.5 C 0 km/h
486 06-06-2004 01:15:01 11.3 C 8.77 g/m*3 11.3 C 0 km/h
487 06-06-2004 01:27:01 11.1 C 8.66 g/m*3 11.1 C 0 km/h
488 06-06-2004 01:39:01 10.9 C 8.65 g/m*3 10.9 C 0 km/h
489 06-06-2004 01:51:01 10.7 C 8.64 g/m*3 10.7 C 0 km/h
490 06-06-2004 02:03:01 10.4 C 8.48 g/m*3 10.4 C 0 km/h
491 06-06-2004 02:15:01 10.4 C 8.58 g/m*3 10.4 C 0 km/h
492 06-06-2004 02:27:01 10.3 C 8.62 g/m*3 10.3 C 0 km/h
493 06-06-2004 02:39:01 10.1 C 8.51 g/m*3 10.1 C 0 km/h
494 06-06-2004 02:52:03 10 C 8.46 g/m*3 10 C 0 km/h
495 06-06-2004 03:04:03 10 C 8.55 g/m*3 10 C 0 km/h
496 06-06-2004 03:16:03 9.8 C 8.54 g/m*3 9.8 C 0 km/h
497 06-06-2004 03:28:03 9.6 C 8.43 g/m*3 9.6 C 0 km/h
498 06-06-2004 03:40:01 9.5 C 8.37 g/m*3 9.5 C 0 km/h
499 06-06-2004 03:52:01 9.4 C 8.23 g/m*3 9.4 C 0 km/h
500 06-06-2004 04:04:01 9.3 C 8.18 g/m*3 9.3 C 0 km/h
Sensor: Nr:Datum:Temp:Abs-Feuchte:Windchill:Wind:
Aussen-T/F 501 06-06-2004 04:16:01 9.2 C 8.22 g/m*3 9.2 C 0 km/h
502 06-06-2004 04:28:01 9.1 C 8.16 g/m*3 9.1 C 0 km/h
503 06-06-2004 04:40:01 8.9 C 8.15 g/m*3 8.9 C 0 km/h
504 06-06-2004 04:52:01 8.8 C 8.09 g/m*3 8.8 C 0 km/h
505 06-06-2004 05:04:01 8.9 C 8.23 g/m*3 8.9 C 0 km/h
506 06-06-2004 05:16:01 9 C 8.29 g/m*3 9 C 0 km/h
507 06-06-2004 05:28:01 8.9 C 8.32 g/m*3 8.9 C 0 km/h
508 06-06-2004 05:40:01 9 C 8.29 g/m*3 9 C 0 km/h
509 06-06-2004 05:52:01 9.1 C 8.34 g/m*3 9.1 C 0 km/h
510 06-06-2004 06:04:01 9.2 C 8.39 g/m*3 9.2 C 0 km/h
511 06-06-2004 06:16:00 9.5 C 8.65 g/m*3 9.5 C 0 km/h
512 06-06-2004 06:28:00 9.6 C 8.7 g/m*3 9.6 C 0 km/h
513 06-06-2004 06:40:00 9.7 C 8.76 g/m*3 9.7 C 0 km/h
514 06-06-2004 06:52:01 9.9 C 8.78 g/m*3 9.9 C 0 km/h
515 06-06-2004 07:04:01 10 C 8.74 g/m*3 10 C 0 km/h
516 06-06-2004 07:16:01 10.2 C 8.76 g/m*3 10.2 C 0 km/h
517 06-06-2004 07:28:01 10.5 C 8.83 g/m*3 10.5 C 0 km/h
518 06-06-2004 07:40:00 10.8 C 8.9 g/m*3 10.8 C 0 km/h
519 06-06-2004 07:52:01 10.7 C 8.84 g/m*3 10.7 C 0 km/h
520 06-06-2004 08:04:01 11.1 C 8.96 g/m*3 11.1 C 0 km/h
521 06-06-2004 08:16:01 11.2 C 8.92 g/m*3 11.2 C 0 km/h
522 06-06-2004 08:28:01 11.7 C 9.1 g/m*3 11.7 C 0 km/h
523 06-06-2004 08:40:00 12 C 9.06 g/m*3 12 C 0 km/h
524 06-06-2004 08:52:01 12 C 8.85 g/m*3 12 C 0 km/h
525 06-06-2004 09:04:01 12.1 C 8.79 g/m*3 12.1 C 0 km/h
Sensor: Nr:Datum:Temp:Abs-Feuchte:Windchill:Wind:
Aussen-T/F 526 06-06-2004 09:16:01 12.5 C 9.13 g/m*3 12.5 C 0 km/h
527 06-06-2004 09:28:01 12.9 C 9.13 g/m*3 12.9 C 0 km/h
528 06-06-2004 09:40:00 13.4 C 8.95 g/m*3 13.4 C 0 km/h
529 06-06-2004 09:52:01 13.9 C 8.99 g/m*3 13.9 C 0 km/h
530 06-06-2004 10:04:01 14.4 C 8.78 g/m*3 14.4 C 0 km/h
531 06-06-2004 10:16:02 15.2 C 9.09 g/m*3 15.2 C 0 km/h
532 06-06-2004 10:28:02 15.8 C 8.75 g/m*3 15.8 C 0 km/h
533 06-06-2004 10:40:01 16 C 8.72 g/m*3 16 C 0 km/h
534 06-06-2004 10:52:01 15.7 C 8.7 g/m*3 15.7 C 0 km/h
535 06-06-2004 11:04:02 15.8 C 9.29 g/m*3 15.8 C 0 km/h
536 06-06-2004 11:16:02 16.9 C 9.21 g/m*3 16.9 C 0 km/h
537 06-06-2004 11:28:03 17.4 C 9.19 g/m*3 17.4 C 0 km/h
538 06-06-2004 11:40:02 18.1 C 9.12 g/m*3 18.1 C 0 km/h
539 06-06-2004 11:52:01 19.2 C 9.4 g/m*3 19.2 C 0 km/h
540 06-06-2004 12:04:03 19.4 C 9.51 g/m*3 19.4 C 0 km/h
541 06-06-2004 12:16:01 19.7 C 9 g/m*3 19.7 C 0 km/h
542 06-06-2004 12:28:01 20.8 C 9.23 g/m*3 20.8 C 0 km/h
543 06-06-2004 12:40:02 20.1 C 8.34 g/m*3 20.1 C 0 km/h
544 06-06-2004 12:52:02 20 C 8.12 g/m*3 20 C 0 km/h
545 06-06-2004 13:04:03 20.5 C 7.65 g/m*3 20.5 C 0 km/h
546 06-06-2004 13:16:01 20.9 C 7.29 g/m*3 20.9 C 0 km/h
547 06-06-2004 13:28:01 22.2 C 7.07 g/m*3 22.2 C 0 km/h
548 06-06-2004 13:40:01 21.9 C 7.91 g/m*3 21.9 C 0 km/h
549 06-06-2004 13:52:01 21.6 C 7.02 g/m*3 21.6 C 0 km/h
550 06-06-2004 14:04:01 22.6 C 7.43 g/m*3 22.6 C 0 km/h
Sensor: Nr:Datum:Temp:Abs-Feuchte:Windchill:Wind:
Aussen-T/F 551 06-06-2004 14:16:01 22.7 C 7.68 g/m*3 22.7 C 0 km/h
552 06-06-2004 14:28:01 22.1 C 7.42 g/m*3 22.1 C 0 km/h
553 06-06-2004 14:40:01 22.1 C 7.81 g/m*3 22.1 C 0 km/h
554 06-06-2004 14:52:01 22.8 C 7.72 g/m*3 22.8 C 0 km/h
555 06-06-2004 15:04:01 23 C 7.6 g/m*3 23 C 0 km/h
556 06-06-2004 15:16:01 22.9 C 8.17 g/m*3 22.9 C 0 km/h
557 06-06-2004 15:28:01 24.3 C 7.75 g/m*3 24.3 C 0 km/h
558 06-06-2004 15:40:01 24.9 C 7.55 g/m*3 24.9 C 0 km/h
559 06-06-2004 15:52:01 25.4 C 7.53 g/m*3 25.4 C 0 km/h
560 06-06-2004 16:04:01 25.1 C 7.87 g/m*3 25.1 C 0 km/h
561 06-06-2004 16:16:01 26.8 C 7.89 g/m*3 26.8 C 0 km/h
562 06-06-2004 16:28:01 26.4 C 7.72 g/m*3 26.4 C 0 km/h
563 06-06-2004 16:40:01 25.6 C 8.57 g/m*3 25.6 C 0 km/h
564 06-06-2004 16:52:01 26.7 C 7.59 g/m*3 26.7 C 0 km/h
565 06-06-2004 17:04:01 26.1 C 7.59 g/m*3 26.1 C 0 km/h
566 06-06-2004 17:16:01 24.6 C 6.98 g/m*3 24.6 C 0 km/h
567 06-06-2004 17:28:01 25.7 C 7.18 g/m*3 25.7 C 0 km/h
568 06-06-2004 17:40:01 24.8 C 7.28 g/m*3 24.8 C 0 km/h
569 06-06-2004 17:52:01 24.4 C 7.79 g/m*3 24.4 C 0 km/h
570 06-06-2004 18:04:01 24.4 C 7.34 g/m*3 24.4 C 0 km/h
571 06-06-2004 18:16:01 24 C 7.4 g/m*3 24 C 0 km/h
572 06-06-2004 18:28:01 24.8 C 7.51 g/m*3 24.8 C 0 km/h
573 06-06-2004 18:40:01 25 C 7.37 g/m*3 25 C 0 km/h
574 06-06-2004 18:52:01 25.2 C 7.68 g/m*3 25.2 C 0 km/h
575 06-06-2004 19:04:01 25 C 7.14 g/m*3 25 C 0 km/h
Sensor: Nr:Datum:Temp:Abs-Feuchte:Windchill:Wind:
Aussen-T/F 576 06-06-2004 19:16:01 24.9 C 7.32 g/m*3 24.9 C 0 km/h
577 06-06-2004 19:28:01 24.5 C 7.39 g/m*3 24.5 C 0 km/h
578 06-06-2004 19:40:01 25.1 C 7.64 g/m*3 25.1 C 0 km/h
579 06-06-2004 19:52:01 24.5 C 7.61 g/m*3 24.5 C 0 km/h
580 06-06-2004 20:04:01 24.5 C 9.4 g/m*3 24.5 C 0 km/h
581 06-06-2004 20:16:01 24.4 C 9.35 g/m*3 24.4 C 0 km/h
582 06-06-2004 20:28:01 24.3 C 9.07 g/m*3 24.3 C 0 km/h
583 06-06-2004 20:40:01 23.4 C 9.46 g/m*3 23.4 C 0 km/h
584 06-06-2004 20:52:01 22.4 C 9.33 g/m*3 22.4 C 0 km/h
585 06-06-2004 21:04:01 21 C 9.53 g/m*3 21 C 0 km/h
586 06-06-2004 21:16:01 20.2 C 9.27 g/m*3 20.2 C 0 km/h
587 06-06-2004 21:28:01 19.3 C 9.29 g/m*3 19.3 C 0 km/h
588 06-06-2004 21:40:01 18.8 C 9.18 g/m*3 18.8 C 0 km/h
589 06-06-2004 21:52:01 18.5 C 9.33 g/m*3 18.5 C 0 km/h
590 06-06-2004 22:04:01 18.3 C 8.76 g/m*3 18.3 C 0 km/h
591 06-06-2004 22:16:01 17.9 C 9.01 g/m*3 17.9 C 0 km/h
592 06-06-2004 22:28:01 17.5 C 8.95 g/m*3 17.5 C 0 km/h
593 06-06-2004 22:40:01 17.3 C 8.99 g/m*3 17.3 C 0 km/h
594 06-06-2004 22:52:01 17 C 8.83 g/m*3 17 C 0 km/h
595 06-06-2004 23:04:01 16.6 C 9.04 g/m*3 16.6 C 0 km/h
596 06-06-2004 23:16:01 16.3 C 9.02 g/m*3 16.3 C 0 km/h
597 06-06-2004 23:28:01 15.9 C 9.07 g/m*3 15.9 C 0 km/h
598 06-06-2004 23:40:01 15.8 C 9.02 g/m*3 15.8 C 0 km/h
599 06-06-2004 23:52:01 15.4 C 8.93 g/m*3 15.4 C 0 km/h

Legende:
   Min
   Max


Maximal/Minimal-Werte vom 02.06.2004 - 06.06.2004

Sensor Min Max Avg
Temp
(Aussen-T/F)
8.8 °C
06-06-2004  04:52:01
26.8 °C
06-06-2004  16:16:01
15.25 °C
Abs-Feuchte
(Aussen-T/F)
6.98 g/m*3
06-06-2004  17:16:01
13.72 g/m*3
02-06-2004  16:00:02
9.44 g/m*3
Windchill
(Aussen-T/F)
8.8 C
06-06-2004  04:52:01
26.8 C
06-06-2004  16:16:01
15.22 C

Die Daten stammen von einer Davis Vantage Pro 2 Wetter-Station und werden unter Linux mit der Software wview2wettercgi und aufbereitet. Alle Angaben erfolgen ohne Gewähr für ihre Vollständigkeit oder Richtigkeit.
Kontakt: Rainer Krienke krienke@uni-koblenz.de . Meine Webseiten an der Uni Koblenz oder privat.
Version: $Revision: 0.78 $